Home > Products > Valid Products > MTR

000
SAUS46 KPDT 011557
MTRMEH
METAR KMEH 011556Z AUTO 00000KT 10SM CLR 11/06 A2998 RMK AO2 SLP146
T01060061





000
SAUS46 KPDT 011457
MTRMEH
METAR KMEH 011456Z AUTO 00000KT 10SM CLR 06/03 A2999 RMK AO2 SLP151
T00610033 55001





000
SAUS46 KPDT 011357
MTRMEH
METAR KMEH 011356Z AUTO 00000KT 10SM CLR 04/02 A2998 RMK AO2 SLP146
T00440022





000
SAUS46 KPDT 011301
MTRMEH
METAR KMEH 011256Z AUTO 00000KT 10SM CLR 04/02 A2999 RMK AO2 SLP149
T00390022





000
SAUS46 KPDT 011301
MTRMEH
METAR KMEH 011256Z AUTO 00000KT 10SM CLR 04/02 A2999 RMK AO2 SLP149
T00390022





000
SAUS46 KPDT 011157
MTRMEH
METAR KMEH 011156Z AUTO 00000KT 10SM CLR 04/03 A2999 RMK AO2 SLP146
T00440028 10089 20044 55000





000
SAUS46 KPDT 011157
MTRMEH
METAR KMEH 011156Z AUTO 00000KT 10SM CLR 04/03 A2999 RMK AO2 SLP146
T00440028 10089 20044 55000





000
SAUS46 KPDT 011057
MTRMEH
METAR KMEH 011056Z AUTO 00000KT 10SM CLR 04/03 A2999 RMK AO2 SLP144
T00440028





000
SAUS46 KPDT 011057
MTRMEH
METAR KMEH 011056Z AUTO 00000KT 10SM CLR 04/03 A2999 RMK AO2 SLP144
T00440028





000
SAUS46 KPDT 010957
MTRMEH
METAR KMEH 010956Z AUTO 00000KT 10SM CLR 05/03 A2999 RMK AO2 SLP142
T00500033





000
SAUS46 KPDT 010857
MTRMEH
METAR KMEH 010856Z AUTO 00000KT 10SM CLR 06/04 A2999 RMK AO2 SLP143
T00610039 58004





000
SAUS46 KPDT 010857
MTRMEH
METAR KMEH 010856Z AUTO 00000KT 10SM CLR 06/04 A2999 RMK AO2 SLP143
T00610039 58004





000
SAUS46 KPDT 010757
MTRMEH
METAR KMEH 010756Z AUTO 00000KT 10SM CLR 07/04 A3000 RMK AO2 SLP148
T00670044 402280039





000
SAUS46 KPDT 010700
MTRMEH
METAR KMEH 010656Z AUTO 00000KT 10SM CLR 08/04 A3001 RMK AO2 SLP151
T00780044





000
SAUS46 KPDT 010557
MTRMEH
METAR KMEH 010556Z AUTO 00000KT 10SM CLR 09/05 A3001 RMK AO2 SLP151
T00890050 10206 20089 51006





000
SAUS46 KPDT 010557
MTRMEH
METAR KMEH 010556Z AUTO 00000KT 10SM CLR 09/05 A3001 RMK AO2 SLP151
T00890050 10206 20089 51006





000
SAUS46 KPDT 010457
MTRMEH
METAR KMEH 010456Z AUTO 00000KT 10SM CLR 11/06 A3001 RMK AO2 SLP151
T01060056





000
SAUS46 KPDT 010457
MTRMEH
METAR KMEH 010456Z AUTO 00000KT 10SM CLR 11/06 A3001 RMK AO2 SLP151
T01060056





000
SAUS46 KPDT 010400
MTRMEH
METAR KMEH 010356Z AUTO 00000KT 10SM CLR 11/06 A3000 RMK AO2 SLP149
T01110056





000
SAUS46 KPDT 010257
MTRMEH
METAR KMEH 010256Z AUTO 00000KT 10SM CLR 14/06 A2998 RMK AO2 SLP147
T01440056 53000





000
SAUS46 KPDT 010200
MTRMEH
METAR KMEH 010156Z AUTO 00000KT 10SM CLR 18/06 A2998 RMK AO2 SLP145
T01780056





000
SAUS46 KPDT 010057
MTRMEH
METAR KMEH 010056Z AUTO 00000KT 10SM CLR 19/06 A2998 RMK AO2 SLP144
T01940061





000
SAUS46 KPDT 312357
MTRMEH
METAR KMEH 312356Z AUTO 00000KT 10SM CLR 21/06 A2998 RMK AO2 SLP143
T02060056 10228 20167 56012





000
SAUS46 KPDT 312357
MTRMEH
METAR KMEH 312356Z AUTO 00000KT 10SM CLR 21/06 A2998 RMK AO2 SLP143
T02060056 10228 20167 56012





000
SAUS46 KPDT 312257
MTRMEH
METAR KMEH 312256Z AUTO VRB03KT 10SM CLR 22/06 A2999 RMK AO2 SLP143
T02220056





000
SAUS46 KPDT 312257
MTRMEH
METAR KMEH 312256Z AUTO VRB03KT 10SM CLR 22/06 A2999 RMK AO2 SLP143
T02220056





000
SAUS46 KPDT 312200
MTRMEH
METAR KMEH 312156Z AUTO VRB03KT 10SM CLR 22/06 A3001 RMK AO2 SLP145
T02220056





000
SAUS46 KPDT 312057
MTRMEH
METAR KMEH 312056Z AUTO VRB04KT 10SM CLR 21/06 A3002 RMK AO2 SLP154
T02110056 56022





000
SAUS46 KPDT 312000
MTRMEH
METAR KMEH 311956Z AUTO VRB03KT 10SM CLR 19/06 A3005 RMK AO2 SLP164
T01940056





000
SAUS46 KPDT 312000
MTRMEH
METAR KMEH 311956Z AUTO VRB03KT 10SM CLR 19/06 A3005 RMK AO2 SLP164
T01940056





000
SAUS46 KPDT 311900
MTRMEH
METAR KMEH 311856Z AUTO 00000KT 10SM CLR 19/06 A3007 RMK AO2 SLP170
T01890056





000
SAUS46 KPDT 311900
MTRMEH
METAR KMEH 311856Z AUTO 00000KT 10SM CLR 19/06 A3007 RMK AO2 SLP170
T01890056





000
SAUS46 KPDT 311757
MTRMEH
METAR KMEH 311756Z AUTO 00000KT 10SM CLR 17/06 A3010 RMK AO2 SLP179
T01670056 10172 20039 58001





000
SAUS46 KPDT 311757
MTRMEH
METAR KMEH 311756Z AUTO 00000KT 10SM CLR 17/06 A3010 RMK AO2 SLP179
T01670056 10172 20039 58001





000
SAUS46 KPDT 311700
MTRMEH
METAR KMEH 311656Z AUTO VRB03KT 10SM CLR 15/06 A3010 RMK AO2 SLP182
T01500056





000
SAUS46 KPDT 311700
MTRMEH
METAR KMEH 311656Z AUTO VRB03KT 10SM CLR 15/06 A3010 RMK AO2 SLP182
T01500056





000
SAUS46 KPDT 311557
MTRMEH
METAR KMEH 311556Z AUTO VRB03KT 10SM CLR 14/06 A3009 RMK AO2 SLP179
T01440061





000
SAUS46 KPDT 311457
MTRMEH
METAR KMEH 311456Z AUTO 00000KT 10SM CLR 08/05 A3010 RMK AO2 SLP189
T00830050 50001





000
SAUS46 KPDT 311357
MTRMEH
METAR KMEH 311356Z AUTO 00000KT 10SM CLR 04/03 A3010 RMK AO2 SLP193
T00440033





000
SAUS46 KPDT 311257
MTRMEH
METAR KMEH 311256Z AUTO 00000KT 10SM BKN036 04/03 A3010 RMK AO2
SLP190 T00440028





000
SAUS46 KPDT 311157
MTRMEH
METAR KMEH 311156Z AUTO 00000KT 10SM SCT038 05/04 A3010 RMK AO2
SLP189 70009 T00500039 10106 20050 56003





000
SAUS46 KPDT 311157
MTRMEH
METAR KMEH 311156Z AUTO 00000KT 10SM SCT038 05/04 A3010 RMK AO2
SLP189 70009 T00500039 10106 20050 56003





000
SAUS46 KPDT 311057
MTRMEH
METAR KMEH 311056Z AUTO 00000KT 10SM CLR 07/04 A3010 RMK AO2 SLP189
T00670044





000
SAUS46 KPDT 311057
MTRMEH
METAR KMEH 311056Z AUTO 00000KT 10SM CLR 07/04 A3010 RMK AO2 SLP189
T00670044





000
SAUS46 KPDT 310957
MTRMEH
METAR KMEH 310956Z AUTO 00000KT 10SM OVC040 08/05 A3010 RMK AO2
SLP187 T00780050





000
SAUS46 KPDT 310857
MTRMEH
METAR KMEH 310856Z AUTO 00000KT 10SM OVC044 07/05 A3011 RMK AO2
SLP193 T00670050 51005





000
SAUS46 KPDT 310857
MTRMEH
METAR KMEH 310856Z AUTO 00000KT 10SM OVC044 07/05 A3011 RMK AO2
SLP193 T00670050 51005





000
SAUS46 KPDT 310757
MTRMEH
METAR KMEH 310756Z AUTO 00000KT 10SM BKN047 07/05 A3010 RMK AO2
SLP194 T00720050 401670033





000
SAUS46 KPDT 310757
MTRMEH
METAR KMEH 310756Z AUTO 00000KT 10SM BKN047 07/05 A3010 RMK AO2
SLP194 T00720050 401670033





000
SAUS46 KPDT 310700
MTRMEH
METAR KMEH 310656Z AUTO 00000KT 10SM SCT055 08/05 A3010 RMK AO2
SLP190 T00830050





000
SAUS46 KPDT 310557
MTRMEH
METAR KMEH 310556Z AUTO 00000KT 10SM BKN045 11/06 A3009 RMK AO2
SLP180 T01060061 10156 20106 50006





000
SAUS46 KPDT 310557
MTRMEH
METAR KMEH 310556Z AUTO 00000KT 10SM BKN045 11/06 A3009 RMK AO2
SLP180 T01060061 10156 20106 50006





000
SAUS46 KPDT 310457
MTRMEH
METAR KMEH 310456Z AUTO 00000KT 10SM BKN033 BKN044 OVC060 12/06
A3010 RMK AO2 SLP181 T01220061





000
SAUS46 KPDT 310457
MTRMEH
METAR KMEH 310456Z AUTO 00000KT 10SM BKN033 BKN044 OVC060 12/06
A3010 RMK AO2 SLP181 T01220061





000
SAUS46 KPDT 310357
MTRMEH
METAR KMEH 310356Z AUTO 00000KT 10SM OVC039 13/07 A3009 RMK AO2
SLP178 T01280067





000
SAUS46 KPDT 310259
MTRMEH
METAR KMEH 310256Z AUTO VRB03KT 10SM SCT046 BKN055 OVC070 13/06
A3007 RMK AO2 SLP177 T01280061 53006





000
SAUS46 KPDT 310259
MTRMEH
METAR KMEH 310256Z AUTO VRB03KT 10SM SCT046 BKN055 OVC070 13/06
A3007 RMK AO2 SLP177 T01280061 53006





000
SAUS46 KPDT 310200
MTRMEH
METAR KMEH 310156Z AUTO 00000KT 10SM SCT048 SCT060 BKN080 14/06
A3006 RMK AO2 SLP175 T01440056





000
SAUS46 KPDT 310057
MTRMEH
METAR KMEH 310056Z AUTO 00000KT 10SM FEW055 BKN075 15/07 A3006 RMK
AO2 SLP178 T01500067





000
SAUS46 KPDT 310057
MTRMEH
METAR KMEH 310056Z AUTO 00000KT 10SM FEW055 BKN075 15/07 A3006 RMK
AO2 SLP178 T01500067





000
SAUS46 KPDT 302357
MTRMEH
METAR KMEH 302356Z AUTO 00000KT 10SM BKN030 BKN040 BKN055 16/08
A3005 RMK AO2 SLP175 60009 T01560078 10161 20111 50002





000
SAUS46 KPDT 302357
MTRMEH
METAR KMEH 302356Z AUTO 00000KT 10SM BKN030 BKN040 BKN055 16/08
A3005 RMK AO2 SLP175 60009 T01560078 10161 20111 50002





000
SAUS46 KPDT 302352
MTRMEH
SPECI KMEH 302348Z AUTO VRB04KT 10SM BKN028 BKN035 OVC065 16/08
A3005 RMK AO2 T01560078





000
SAUS46 KPDT 302257
MTRMEH
METAR KMEH 302256Z AUTO VRB04KT 10SM FEW036 BKN049 OVC060 14/09
A3006 RMK AO2 RAB28E44 SLP177 P0000 T01440089





000
SAUS46 KPDT 302257
MTRMEH
METAR KMEH 302256Z AUTO VRB04KT 10SM FEW036 BKN049 OVC060 14/09
A3006 RMK AO2 RAB28E44 SLP177 P0000 T01440089





000
SAUS46 KPDT 302248
MTRMEH
SPECI KMEH 302244Z AUTO 00000KT 10SM SCT021 BKN039 OVC055 13/09
A3006 RMK AO2 RAB28E44 P0000 T01330094





000
SAUS46 KPDT 302223
MTRMEH
SPECI KMEH 302219Z AUTO VRB03KT 10SM SCT021 BKN026 OVC110 13/09
A3006 RMK AO2 T01330089





000
SAUS46 KPDT 302200
MTRMEH
METAR KMEH 302156Z AUTO VRB04KT 10SM FEW021 SCT065 BKN110 14/09
A3005 RMK AO2 SLP175 T01440089





000
SAUS46 KPDT 302200
MTRMEH
METAR KMEH 302156Z AUTO VRB04KT 10SM FEW021 SCT065 BKN110 14/09
A3005 RMK AO2 SLP175 T01440089





000
SAUS46 KPDT 302057
MTRMEH
METAR KMEH 302056Z AUTO 10SM FEW011 SCT022 OVC060 13/11 A3004 RMK
AO2 RAE55 SLP173 P0001 60009 T01330106 50011





000
SAUS46 KPDT 302047
MTRMEH
SPECI KMEH 302043Z AUTO VRB03KT 10SM -RA SCT011 BKN019 OVC060 13/11
A3005 RMK AO2 P0001 T01330111





000
SAUS46 KPDT 302039
MTRMEH
SPECI KMEH 302035Z AUTO 00000KT 10SM -RA BKN011 BKN019 OVC065 13/11
A3004 RMK AO2 P0001 T01280106





000
SAUS46 KPDT 302016
MTRMEH
SPECI KMEH 302011Z AUTO VRB03KT 10SM -RA SCT009 BKN021 OVC049 12/10
A3005 RMK AO2 P0001 T01170100





000
SAUS46 KPDT 301957
MTRMEH
METAR KMEH 301956Z AUTO VRB03KT 7SM -RA SCT009 BKN035 OVC055 12/10
A3005 RMK AO2 RAB01 SLP175 P0008 T01170100





000
SAUS46 KPDT 301947
MTRMEH
SPECI KMEH 301943Z AUTO 00000KT 5SM RA BR SCT009 BKN015 OVC050 11/09
A3004 RMK AO2 RAB01 P0004 T01110094





000
SAUS46 KPDT 301947
MTRMEH
SPECI KMEH 301943Z AUTO 00000KT 5SM RA BR SCT009 BKN015 OVC050 11/09
A3004 RMK AO2 RAB01 P0004 T01110094





000
SAUS46 KPDT 301941
MTRMEH
SPECI KMEH 301937Z AUTO 00000KT 8SM RA BKN013 BKN023 OVC043 11/09
A3004 RMK AO2 RAB01 P0002 T01110094





000
SAUS46 KPDT 301931
MTRMEH
SPECI KMEH 301927Z AUTO VRB04KT 10SM -RA BKN015 OVC025 12/09 A3003
RMK AO2 RAB01 P0001 T01220089





000
SAUS46 KPDT 301917
MTRMEH
SPECI KMEH 301913Z AUTO 10SM -RA BKN013 BKN047 OVC055 13/10 A3003
RMK AO2 RAB01 P0000 T01280100





000
SAUS46 KPDT 301857
MTRMEH
METAR KMEH 301856Z AUTO 00000KT 10SM FEW015 BKN048 OVC055 12/09
A3003 RMK AO2 RAB20E49 SLP166 P0000 T01220094





000
SAUS46 KPDT 301857
MTRMEH
METAR KMEH 301856Z AUTO 00000KT 10SM FEW015 BKN048 OVC055 12/09
A3003 RMK AO2 RAB20E49 SLP166 P0000 T01220094





000
SAUS46 KPDT 301757
MTRMEH
METAR KMEH 301756Z AUTO 00000KT 10SM SCT095 14/07 A3001 RMK AO2
SLP153 T01440067 10167 20033 53020





000
SAUS46 KPDT 301757
MTRMEH
METAR KMEH 301756Z AUTO 00000KT 10SM SCT095 14/07 A3001 RMK AO2
SLP153 T01440067 10167 20033 53020





000
SAUS46 KPDT 301657
MTRMEH
METAR KMEH 301656Z AUTO VRB03KT 10SM FEW070 16/04 A2999 RMK AO2
PRESRR SLP141 T01560044





000
SAUS46 KPDT 301657
MTRMEH
METAR KMEH 301656Z AUTO VRB03KT 10SM FEW070 16/04 A2999 RMK AO2
PRESRR SLP141 T01560044





000
SAUS46 KPDT 301600
MTRMEH
METAR KMEH 301556Z AUTO 10SM SCT075 SCT095 16/04 A2995 RMK AO2
SLP125 T01610039





000
SAUS46 KPDT 301457
MTRMEH
METAR KMEH 301456Z AUTO 00000KT 10SM SCT085 10/04 A2994 RMK AO2
SLP128 T01000044 51009





000
SAUS46 KPDT 301457
MTRMEH
METAR KMEH 301456Z AUTO 00000KT 10SM SCT085 10/04 A2994 RMK AO2
SLP128 T01000044 51009





000
SAUS46 KPDT 301357
MTRMEH
METAR KMEH 301356Z AUTO 00000KT 10SM CLR 07/03 A2993 RMK AO2 SLP127
T00670033





000
SAUS46 KPDT 301300
MTRMEH
METAR KMEH 301256Z AUTO 00000KT 10SM CLR 03/01 A2992 RMK AO2 SLP126
T00330011





000
SAUS46 KPDT 301300
MTRMEH
METAR KMEH 301256Z AUTO 00000KT 10SM CLR 03/01 A2992 RMK AO2 SLP126
T00330011





000
SAUS46 KPDT 301200
MTRMEH
METAR KMEH 301156Z AUTO 00000KT 10SM CLR 03/02 A2991 RMK AO2 SLP121
T00330017 10094 20033 58003





000
SAUS46 KPDT 301200
MTRMEH
METAR KMEH 301156Z AUTO 00000KT 10SM CLR 03/02 A2991 RMK AO2 SLP121
T00330017 10094 20033 58003





000
SAUS46 KPDT 301058
MTRMEH
METAR KMEH 301056Z AUTO 00000KT 10SM FEW070 04/02 A2991 RMK AO2
SLP119 T00390017





000
SAUS46 KPDT 300957
MTRMEH
METAR KMEH 300956Z AUTO 00000KT 10SM SCT095 04/02 A2992 RMK AO2
SLP118 T00440022





000
SAUS46 KPDT 300857
MTRMEH
METAR KMEH 300856Z AUTO 00000KT 10SM FEW095 05/02 A2992 RMK AO2
SLP120 T00500022 56008





000
SAUS46 KPDT 300759
MTRMEH
METAR KMEH 300756Z AUTO 00000KT 10SM CLR 06/03 A2992 RMK AO2 SLP122
T00610033 402440061





000
SAUS46 KPDT 300759
MTRMEH
METAR KMEH 300756Z AUTO 00000KT 10SM CLR 06/03 A2992 RMK AO2 SLP122
T00610033 402440061





000
SAUS46 KPDT 300657
MTRMEH
METAR KMEH 300656Z AUTO 00000KT 10SM CLR 08/04 A2994 RMK AO2 SLP126
T00780039





000
SAUS46 KPDT 300657
MTRMEH
METAR KMEH 300656Z AUTO 00000KT 10SM CLR 08/04 A2994 RMK AO2 SLP126
T00780039





000
SAUS46 KPDT 300557
MTRMEH
METAR KMEH 300556Z AUTO 00000KT 10SM CLR 09/04 A2995 RMK AO2 SLP126
T00940044 10206 20094 51001





000
SAUS46 KPDT 300500
MTRMEH
METAR KMEH 300456Z AUTO 00000KT 10SM CLR 12/04 A2994 RMK AO2 SLP123
T01170044





000
SAUS46 KPDT 300500
MTRMEH
METAR KMEH 300456Z AUTO 00000KT 10SM CLR 12/04 A2994 RMK AO2 SLP123
T01170044





000
SAUS46 KPDT 300400
MTRMEH
METAR KMEH 300356Z AUTO 00000KT 10SM CLR 13/05 A2995 RMK AO2 SLP117
T01330050





000
SAUS46 KPDT 300400
MTRMEH
METAR KMEH 300356Z AUTO 00000KT 10SM CLR 13/05 A2995 RMK AO2 SLP117
T01330050





000
SAUS46 KPDT 300257
MTRMEH
METAR KMEH 300256Z AUTO 00000KT 10SM CLR 16/04 A2994 RMK AO2 SLP114
T01560044 53003





000
SAUS46 KPDT 300157
MTRMEH
METAR KMEH 300156Z AUTO VRB04KT 10SM CLR 17/04 A2993 RMK AO2 SLP114
T01720044





000
SAUS46 KPDT 300157
MTRMEH
METAR KMEH 300156Z AUTO VRB04KT 10SM CLR 17/04 A2993 RMK AO2 SLP114
T01720044





000
SAUS46 KPDT 300057
MTRMEH
METAR KMEH 300056Z AUTO VRB05KT 10SM FEW070 BKN085 OVC100 20/05
A2992 RMK AO2 SLP104 T02000050





000
SAUS46 KPDT 300057
MTRMEH
METAR KMEH 300056Z AUTO VRB05KT 10SM FEW070 BKN085 OVC100 20/05
A2992 RMK AO2 SLP104 T02000050





000
SAUS46 KPDT 292357
MTRMEH
METAR KMEH 292356Z AUTO 10SM SCT110 19/04 A2993 RMK AO2 SLP108
T01940044 10233 20183 53009





000
SAUS46 KPDT 292357
MTRMEH
METAR KMEH 292356Z AUTO 10SM SCT110 19/04 A2993 RMK AO2 SLP108
T01940044 10233 20183 53009





000
SAUS46 KPDT 292257
MTRMEH
METAR KMEH 292256Z AUTO VRB04KT 10SM FEW060 SCT090 SCT110 22/07
A2992 RMK AO2 SLP101 T02170072





000
SAUS46 KPDT 292257
MTRMEH
METAR KMEH 292256Z AUTO VRB04KT 10SM FEW060 SCT090 SCT110 22/07
A2992 RMK AO2 SLP101 T02170072





000
SAUS46 KPDT 292157
MTRMEH
METAR KMEH 292156Z AUTO 00000KT 10SM FEW120 23/09 A2989 RMK AO2
SLP089 T02280094





000
SAUS46 KPDT 292057
MTRMEH
METAR KMEH 292056Z AUTO VRB04KT 10SM CLR 21/11 A2990 RMK AO2 SLP096
T02110106 53003





000
SAUS46 KPDT 291957
MTRMEH
METAR KMEH 291956Z AUTO VRB04KT 10SM SCT031 20/11 A2989 RMK AO2
SLP092 T02000111





000
SAUS46 KPDT 291900
MTRMEH
METAR KMEH 291856Z AUTO VRB04KT 10SM BKN030 BKN100 19/10 A2989 RMK
AO2 SLP093 T01890100





000
SAUS46 KPDT 291900
MTRMEH
METAR KMEH 291856Z AUTO VRB04KT 10SM BKN030 BKN100 19/10 A2989 RMK
AO2 SLP093 T01890100





000
SAUS46 KPDT 291851
MTRMEH
SPECI KMEH 291847Z AUTO VRB05KT 10SM BKN029 BKN100 18/10 A2989 RMK
AO2 T01830100





000
SAUS46 KPDT 291851
MTRMEH
SPECI KMEH 291847Z AUTO VRB05KT 10SM BKN029 BKN100 18/10 A2989 RMK
AO2 T01830100





000
SAUS46 KPDT 291758
MTRMEH
METAR KMEH 291756Z AUTO 33004KT 10SM BKN100 19/11 A2987 RMK AO2
SLP086 T01890106 10244 20172 53036





000
SAUS46 KPDT 291758
MTRMEH
METAR KMEH 291756Z AUTO 33004KT 10SM BKN100 19/11 A2987 RMK AO2
SLP086 T01890106 10244 20172 53036





000
SAUS46 KPDT 291657
MTRMEH
METAR KMEH 291656Z AUTO VRB05KT 10SM CLR 19/08 A2983 RMK AO2 SLP073
T01890083





    US Dept of Commerce
    National Oceanic and Atmospheric Administration
    National Weather Service
    1325 East West Highway
    Silver Spring, MD 20910
    Page Author: NWS Internet Services Team
Disclaimer
Information Quality
Credits
Glossary
Privacy Policy
Freedom of Information Act (FOIA)
About Us
Career Opportunities